createdAt,value
2023-04-11T00:00:43.388Z,997.23
2023-04-11T00:01:43.429Z,997.29
2023-04-11T00:02:43.512Z,997.30
2023-04-11T00:03:43.696Z,997.28
2023-04-11T00:04:43.461Z,997.25
2023-04-11T00:05:43.370Z,997.26
2023-04-11T00:06:43.320Z,997.34
2023-04-11T00:07:43.322Z,997.37
2023-04-11T00:08:43.380Z,997.23
2023-04-11T00:09:43.272Z,997.25
2023-04-11T00:10:45.326Z,997.24
2023-04-11T00:11:43.288Z,997.21
2023-04-11T00:12:43.264Z,997.22
2023-04-11T00:13:43.315Z,997.26
2023-04-11T00:14:43.293Z,997.20
2023-04-11T00:15:43.230Z,997.22
2023-04-11T00:16:43.255Z,997.23
2023-04-11T00:17:43.221Z,997.17
2023-04-11T00:18:43.250Z,997.06
2023-04-11T00:19:43.197Z,997.12
2023-04-11T00:20:43.176Z,997.10
2023-04-11T00:21:43.275Z,997.09
2023-04-11T00:22:43.227Z,997.14
2023-04-11T00:23:43.192Z,997.12
2023-04-11T00:24:43.128Z,997.18
2023-04-11T00:25:43.140Z,997.17
2023-04-11T00:26:43.118Z,997.16
2023-04-11T00:27:43.150Z,997.18
2023-04-11T00:28:43.388Z,997.11
2023-04-11T00:29:43.083Z,997.09
2023-04-11T00:30:43.058Z,997.08
2023-04-11T00:31:43.120Z,997.05
2023-04-11T00:32:43.179Z,997.10
2023-04-11T00:33:43.041Z,997.02
2023-04-11T00:34:43.036Z,997.09
2023-04-11T00:35:43.040Z,997.02
2023-04-11T00:36:43.049Z,996.99
2023-04-11T00:37:43.073Z,997.06
2023-04-11T00:38:42.988Z,996.99
2023-04-11T00:39:42.959Z,996.98
2023-04-11T00:40:43.007Z,997.02
2023-04-11T00:41:43.000Z,996.96
2023-04-11T00:42:42.976Z,996.97
2023-04-11T00:43:42.923Z,996.91
2023-04-11T00:44:42.995Z,996.97
2023-04-11T00:45:43.044Z,996.97
2023-04-11T00:46:44.241Z,997.00
2023-04-11T00:47:42.956Z,996.96
2023-04-11T00:48:42.867Z,996.90
2023-04-11T00:49:42.872Z,996.92
2023-04-11T00:50:42.922Z,996.94
2023-04-11T00:51:42.843Z,996.93
2023-04-11T00:52:42.851Z,996.95
2023-04-11T00:53:42.816Z,996.94
2023-04-11T00:54:42.808Z,996.88
2023-04-11T00:55:42.856Z,996.94
2023-04-11T00:56:42.781Z,996.87
2023-04-11T00:57:42.783Z,996.86
2023-04-11T00:58:42.761Z,996.84
2023-04-11T00:59:42.783Z,996.87
2023-04-11T01:00:42.806Z,996.89
2023-04-11T01:01:42.837Z,996.89
2023-04-11T01:02:42.872Z,996.82
2023-04-11T01:03:42.823Z,996.88
2023-04-11T01:04:42.708Z,996.79
2023-04-11T01:05:42.759Z,996.86
2023-04-11T01:06:42.733Z,996.73
2023-04-11T01:07:42.671Z,996.77
2023-04-11T01:08:42.661Z,996.74
2023-04-11T01:09:42.661Z,996.74
2023-04-11T01:10:42.707Z,996.75
2023-04-11T01:11:42.693Z,996.73
2023-04-11T01:12:42.645Z,996.62
2023-04-11T01:13:42.628Z,996.64
2023-04-11T01:14:42.605Z,996.67
2023-04-11T01:15:42.667Z,996.64
2023-04-11T01:16:42.716Z,996.62
2023-04-11T01:17:42.630Z,996.63
2023-04-11T01:18:42.595Z,996.60
2023-04-11T01:19:42.549Z,996.60
2023-04-11T01:20:42.617Z,996.60
2023-04-11T01:21:42.525Z,996.61
2023-04-11T01:22:42.516Z,996.62
2023-04-11T01:23:42.525Z,996.67
2023-04-11T01:24:42.495Z,996.72
2023-04-11T01:25:42.531Z,996.99
2023-04-11T01:26:42.528Z,997.13
2023-04-11T01:27:45.501Z,997.22
2023-04-11T01:28:42.450Z,997.53
2023-04-11T01:29:42.448Z,997.44
2023-04-11T01:30:42.603Z,997.33
2023-04-11T01:31:42.425Z,997.29
2023-04-11T01:32:42.514Z,997.20
2023-04-11T01:33:42.398Z,997.22
2023-04-11T01:34:42.451Z,997.16
2023-04-11T01:35:42.406Z,997.23
2023-04-11T01:36:42.434Z,997.23
2023-04-11T01:37:42.432Z,997.29
2023-04-11T01:38:42.360Z,997.28
2023-04-11T01:39:42.341Z,997.18
2023-04-11T01:40:42.326Z,997.21
2023-04-11T01:41:42.387Z,997.16
2023-04-11T01:42:42.362Z,997.14
2023-04-11T01:43:42.300Z,997.16
2023-04-11T01:44:42.292Z,997.11
2023-04-11T01:45:42.275Z,997.10
2023-04-11T01:46:42.323Z,997.00
2023-04-11T01:47:42.425Z,997.07
2023-04-11T01:48:42.307Z,997.03
2023-04-11T01:49:42.241Z,997.00
2023-04-11T01:50:42.227Z,996.94
2023-04-11T01:51:42.288Z,997.00
2023-04-11T01:52:42.254Z,996.97
2023-04-11T01:53:42.248Z,996.94
2023-04-11T01:54:42.201Z,997.00
2023-04-11T01:55:42.173Z,997.01
2023-04-11T01:56:42.162Z,997.04
2023-04-11T01:57:42.147Z,996.99
2023-04-11T01:58:42.141Z,997.02
2023-04-11T01:59:42.208Z,997.01
2023-04-11T02:00:42.156Z,996.96
2023-04-11T02:01:42.196Z,996.94
2023-04-11T02:02:42.259Z,996.93
2023-04-11T02:03:42.163Z,996.90
2023-04-11T02:04:42.143Z,996.90
2023-04-11T02:05:42.063Z,996.88
2023-04-11T02:06:42.065Z,996.84
2023-04-11T02:07:42.068Z,996.87
2023-04-11T02:08:42.033Z,996.87
2023-04-11T02:09:42.077Z,996.87
2023-04-11T02:10:42.005Z,996.86
2023-04-11T02:11:41.997Z,996.86
2023-04-11T02:12:41.981Z,996.87
2023-04-11T02:13:41.989Z,996.84
2023-04-11T02:14:42.020Z,996.87
2023-04-11T02:15:41.990Z,996.83
2023-04-11T02:16:41.949Z,996.83
2023-04-11T02:17:41.985Z,996.81
2023-04-11T02:18:41.930Z,996.88
2023-04-11T02:19:42.021Z,996.88
2023-04-11T02:20:41.913Z,996.91
2023-04-11T02:21:41.957Z,996.90
2023-04-11T02:22:41.888Z,996.86
2023-04-11T02:23:41.884Z,996.88
2023-04-11T02:24:41.868Z,996.96
2023-04-11T02:25:41.883Z,996.88
2023-04-11T02:26:41.915Z,996.90
2023-04-11T02:27:41.820Z,997.01
2023-04-11T02:28:41.810Z,996.90
2023-04-11T02:29:42.020Z,996.97
2023-04-11T02:30:41.911Z,996.99
2023-04-11T02:31:41.915Z,996.97
2023-04-11T02:32:41.851Z,996.96
2023-04-11T02:33:41.777Z,996.94
2023-04-11T02:34:41.758Z,996.92
2023-04-11T02:35:41.752Z,996.90
2023-04-11T02:36:41.802Z,996.91
2023-04-11T02:37:41.748Z,996.95
2023-04-11T02:38:41.713Z,996.90
2023-04-11T02:39:41.704Z,996.98
2023-04-11T02:40:41.697Z,996.93
2023-04-11T02:41:41.748Z,996.93
2023-04-11T02:42:41.672Z,996.98
2023-04-11T02:43:41.722Z,996.94
2023-04-11T02:44:41.664Z,996.94
2023-04-11T02:45:41.647Z,996.95
2023-04-11T02:46:41.714Z,996.96
2023-04-11T02:47:41.664Z,997.05
2023-04-11T02:48:41.685Z,996.96
2023-04-11T02:49:41.591Z,996.99
2023-04-11T02:50:41.595Z,997.00
2023-04-11T02:51:41.643Z,996.95
2023-04-11T02:52:41.575Z,996.98
2023-04-11T02:53:41.629Z,996.98
2023-04-11T02:54:41.559Z,997.08
2023-04-11T02:55:41.532Z,997.07
2023-04-11T02:56:41.541Z,997.07
2023-04-11T02:57:41.513Z,997.10
2023-04-11T02:58:41.543Z,997.06
2023-04-11T02:59:41.551Z,997.06
2023-04-11T03:00:41.540Z,997.11
2023-04-11T03:01:41.617Z,997.07
2023-04-11T03:02:41.815Z,997.08
2023-04-11T03:03:41.538Z,997.08
2023-04-11T03:04:41.447Z,997.04
2023-04-11T03:05:41.431Z,997.06
2023-04-11T03:06:41.409Z,997.07
2023-04-11T03:07:41.419Z,997.11
2023-04-11T03:08:41.486Z,997.09
2023-04-11T03:09:41.416Z,997.07
2023-04-11T03:10:41.438Z,997.04
2023-04-11T03:11:41.379Z,996.98
2023-04-11T03:12:41.361Z,997.04
2023-04-11T03:13:41.406Z,996.98
2023-04-11T03:14:41.326Z,996.97
2023-04-11T03:15:41.402Z,996.95
2023-04-11T03:16:41.328Z,997.01
2023-04-11T03:17:41.315Z,997.00
2023-04-11T03:18:41.357Z,997.01
2023-04-11T03:19:41.288Z,997.00
2023-04-11T03:20:41.272Z,997.02
2023-04-11T03:21:41.304Z,997.04
2023-04-11T03:22:41.248Z,997.02
2023-04-11T03:23:41.334Z,997.01
2023-04-11T03:24:41.256Z,997.03
2023-04-11T03:25:41.221Z,997.00
2023-04-11T03:26:41.214Z,996.95
2023-04-11T03:27:41.195Z,996.99
2023-04-11T03:28:41.266Z,996.95
2023-04-11T03:29:41.197Z,996.96
2023-04-11T03:30:41.180Z,997.05
2023-04-11T03:31:41.246Z,996.96
2023-04-11T03:32:41.172Z,996.96
2023-04-11T03:33:41.202Z,996.91
2023-04-11T03:34:41.136Z,997.00
2023-04-11T03:35:41.153Z,997.01
2023-04-11T03:36:41.122Z,996.96
2023-04-11T03:37:41.105Z,997.00
2023-04-11T03:38:41.153Z,997.00
2023-04-11T03:39:41.086Z,997.06
2023-04-11T03:40:41.135Z,996.97
2023-04-11T03:41:41.117Z,997.00
2023-04-11T03:42:41.086Z,997.01
2023-04-11T03:43:41.040Z,996.96
2023-04-11T03:44:41.025Z,996.95
2023-04-11T03:45:41.035Z,996.95
2023-04-11T03:46:41.115Z,997.00
2023-04-11T03:47:41.039Z,997.10
2023-04-11T03:48:41.024Z,997.05
2023-04-11T03:49:40.981Z,997.08
2023-04-11T03:50:40.975Z,997.08
2023-04-11T03:51:41.028Z,997.08
2023-04-11T03:52:40.950Z,997.02
2023-04-11T03:53:40.933Z,997.04
2023-04-11T03:54:40.960Z,997.07
2023-04-11T03:55:40.907Z,997.10
2023-04-11T03:56:40.980Z,997.07
2023-04-11T03:57:40.903Z,997.13
2023-04-11T03:58:40.945Z,997.06
2023-04-11T03:59:40.884Z,997.15
2023-04-11T04:00:40.883Z,997.16
2023-04-11T04:01:40.958Z,997.13
2023-04-11T04:02:40.943Z,997.16
2023-04-11T04:03:41.158Z,997.12
2023-04-11T04:04:40.921Z,997.13
2023-04-11T04:05:40.806Z,997.20
2023-04-11T04:06:40.806Z,997.16
2023-04-11T04:07:40.871Z,997.16
2023-04-11T04:08:40.779Z,997.19
2023-04-11T04:09:40.757Z,997.27
2023-04-11T04:10:40.737Z,997.26
2023-04-11T04:11:40.810Z,997.24
2023-04-11T04:12:40.759Z,997.21
2023-04-11T04:13:40.732Z,997.35
2023-04-11T04:14:40.722Z,997.29
2023-04-11T04:15:40.698Z,997.34
2023-04-11T04:16:40.900Z,997.41
2023-04-11T04:17:40.812Z,997.43
2023-04-11T04:18:40.682Z,997.46
2023-04-11T04:19:40.648Z,997.34
2023-04-11T04:20:40.674Z,997.56
2023-04-11T04:21:40.628Z,997.61
2023-04-11T04:22:40.676Z,997.44
2023-04-11T04:23:40.615Z,997.48
2023-04-11T04:24:40.596Z,997.53
2023-04-11T04:25:40.617Z,997.52
2023-04-11T04:26:40.588Z,997.42
2023-04-11T04:27:40.637Z,997.45
2023-04-11T04:28:40.570Z,997.44
2023-04-11T04:29:40.561Z,997.41
2023-04-11T04:30:40.528Z,997.40
2023-04-11T04:31:40.586Z,997.43
2023-04-11T04:32:40.631Z,997.42
2023-04-11T04:33:40.524Z,997.43
2023-04-11T04:34:40.488Z,997.34
2023-04-11T04:35:40.527Z,997.42
2023-04-11T04:36:40.482Z,997.46
2023-04-11T04:37:40.536Z,997.46
2023-04-11T04:38:40.461Z,997.43
2023-04-11T04:39:40.459Z,997.48
2023-04-11T04:40:40.456Z,997.52
2023-04-11T04:41:40.428Z,997.48
2023-04-11T04:42:40.409Z,997.42
2023-04-11T04:43:40.469Z,997.38
2023-04-11T04:44:40.401Z,997.44
2023-04-11T04:45:40.449Z,997.41
2023-04-11T04:46:40.376Z,997.48
2023-04-11T04:47:40.476Z,997.48
2023-04-11T04:48:40.348Z,997.42
2023-04-11T04:49:40.332Z,997.43
2023-04-11T04:50:40.325Z,997.42
2023-04-11T04:51:40.329Z,997.37
2023-04-11T04:52:40.389Z,997.41
2023-04-11T04:53:40.283Z,997.45
2023-04-11T04:54:40.282Z,997.47
2023-04-11T04:55:40.271Z,997.52
2023-04-11T04:56:40.258Z,997.49
2023-04-11T04:57:40.318Z,997.52
2023-04-11T04:58:40.267Z,997.56
2023-04-11T04:59:40.263Z,997.55
2023-04-11T05:00:40.309Z,997.55
2023-04-11T05:01:40.501Z,997.59
2023-04-11T05:02:40.276Z,997.60
2023-04-11T05:03:40.361Z,997.59
2023-04-11T05:04:40.176Z,997.61
2023-04-11T05:05:40.164Z,997.65
2023-04-11T05:06:40.176Z,997.63
2023-04-11T05:07:40.169Z,997.65
2023-04-11T05:08:40.201Z,997.67
2023-04-11T05:09:40.128Z,997.65
2023-04-11T05:10:40.104Z,997.66
2023-04-11T05:11:40.107Z,997.67
2023-04-11T05:12:40.099Z,997.67
2023-04-11T05:13:40.188Z,997.64
2023-04-11T05:14:40.073Z,997.63
2023-04-11T05:15:40.069Z,997.61
2023-04-11T05:16:40.171Z,997.69
2023-04-11T05:17:40.195Z,997.69
2023-04-11T05:18:40.039Z,997.67
2023-04-11T05:19:40.012Z,997.70
2023-04-11T05:20:40.081Z,997.73
2023-04-11T05:21:40.029Z,997.73
2023-04-11T05:22:40.049Z,997.72
2023-04-11T05:23:39.962Z,997.75
2023-04-11T05:24:39.986Z,997.72
2023-04-11T05:25:39.957Z,997.73
2023-04-11T05:26:39.959Z,997.77
2023-04-11T05:27:39.987Z,997.78
2023-04-11T05:28:39.922Z,997.85
2023-04-11T05:29:39.930Z,997.80
2023-04-11T05:30:40.127Z,997.81
2023-04-11T05:31:39.945Z,997.87
2023-04-11T05:32:39.942Z,997.90
2023-04-11T05:33:39.936Z,997.84
2023-04-11T05:34:39.870Z,997.94
2023-04-11T05:35:39.872Z,998.00
2023-04-11T05:36:39.840Z,998.00
2023-04-11T05:37:39.917Z,998.00
2023-04-11T05:38:39.883Z,997.98
2023-04-11T05:39:39.847Z,997.98
2023-04-11T05:40:40.290Z,998.03
2023-04-11T05:41:39.848Z,998.05
2023-04-11T05:42:39.789Z,998.08
2023-04-11T05:43:39.779Z,998.15
2023-04-11T05:44:39.777Z,998.17
2023-04-11T05:45:39.869Z,998.14
2023-04-11T05:46:39.787Z,998.16
2023-04-11T05:47:39.801Z,998.17
2023-04-11T05:48:39.780Z,998.18
2023-04-11T05:49:39.729Z,998.19
2023-04-11T05:50:39.749Z,998.21
2023-04-11T05:51:39.779Z,998.22
2023-04-11T05:52:39.690Z,998.26
2023-04-11T05:53:39.692Z,998.25
2023-04-11T05:54:39.660Z,998.32
2023-04-11T05:55:39.644Z,998.32
2023-04-11T05:56:39.732Z,998.36
2023-04-11T05:57:39.641Z,998.41
2023-04-11T05:58:39.628Z,998.40
2023-04-11T05:59:39.638Z,998.40
2023-04-11T06:00:39.598Z,998.39
2023-04-11T06:01:39.704Z,998.45
2023-04-11T06:02:39.715Z,998.47
2023-04-11T06:03:39.644Z,998.49
2023-04-11T06:04:39.812Z,998.54
2023-04-11T06:05:39.538Z,998.49
2023-04-11T06:06:39.589Z,998.50
2023-04-11T06:07:39.528Z,998.49
2023-04-11T06:08:39.501Z,998.46
2023-04-11T06:09:39.501Z,998.48
2023-04-11T06:10:39.492Z,998.49
2023-04-11T06:11:39.547Z,998.53
2023-04-11T06:12:39.537Z,998.52
2023-04-11T06:13:39.484Z,998.51
2023-04-11T06:14:40.619Z,998.52
2023-04-11T06:15:39.500Z,998.51
2023-04-11T06:16:39.476Z,998.54
2023-04-11T06:17:39.496Z,998.52
2023-04-11T06:18:39.406Z,998.50
2023-04-11T06:19:39.402Z,998.43
2023-04-11T06:20:39.401Z,998.49
2023-04-11T06:21:39.456Z,998.46
2023-04-11T06:22:39.417Z,998.45
2023-04-11T06:23:39.369Z,998.47
2023-04-11T06:24:39.354Z,998.45
2023-04-11T06:25:39.379Z,998.47
2023-04-11T06:26:39.313Z,998.44
2023-04-11T06:27:39.413Z,998.42
2023-04-11T06:28:39.291Z,998.43
2023-04-11T06:29:39.298Z,998.43
2023-04-11T06:30:39.414Z,998.48
2023-04-11T06:31:39.466Z,998.56
2023-04-11T06:32:39.381Z,998.56
2023-04-11T06:33:39.259Z,998.55
2023-04-11T06:34:39.248Z,998.53
2023-04-11T06:35:39.317Z,998.54
2023-04-11T06:36:39.249Z,998.50
2023-04-11T06:37:39.271Z,998.62
2023-04-11T06:38:39.210Z,998.58
2023-04-11T06:39:39.253Z,998.55
2023-04-11T06:40:39.291Z,998.58
2023-04-11T06:41:39.171Z,998.62
2023-04-11T06:42:39.186Z,998.56
2023-04-11T06:43:39.139Z,998.65
2023-04-11T06:44:39.279Z,998.64
2023-04-11T06:45:39.125Z,998.67
2023-04-11T06:46:39.164Z,998.66
2023-04-11T06:47:39.168Z,998.73
2023-04-11T06:48:39.140Z,998.75
2023-04-11T06:49:39.203Z,998.78
2023-04-11T06:50:39.065Z,998.74
2023-04-11T06:51:39.072Z,998.78
2023-04-11T06:52:39.068Z,998.90
2023-04-11T06:53:39.033Z,998.75
2023-04-11T06:54:39.511Z,998.82
2023-04-11T06:55:39.015Z,998.84
2023-04-11T06:56:39.021Z,998.90
2023-04-11T06:57:39.085Z,998.86
2023-04-11T06:58:38.982Z,998.89
2023-04-11T06:59:38.977Z,998.85
2023-04-11T07:00:38.992Z,998.87
2023-04-11T07:01:39.080Z,998.92
2023-04-11T07:02:39.410Z,998.94
2023-04-11T07:03:39.252Z,998.88
2023-04-11T07:04:39.197Z,998.86
2023-04-11T07:05:39.668Z,998.82
2023-04-11T07:06:38.922Z,998.93
2023-04-11T07:07:38.949Z,998.84
2023-04-11T07:08:38.918Z,998.84
2023-04-11T07:09:38.974Z,998.91
2023-04-11T07:10:38.889Z,998.84
2023-04-11T07:11:38.867Z,998.83
2023-04-11T07:12:38.892Z,998.97
2023-04-11T07:13:38.825Z,998.97
2023-04-11T07:14:38.821Z,998.96
2023-04-11T07:15:38.848Z,998.98
2023-04-11T07:16:38.934Z,999.09
2023-04-11T07:17:38.896Z,999.00
2023-04-11T07:18:38.767Z,999.08
2023-04-11T07:19:38.755Z,999.04
2023-04-11T07:20:38.823Z,999.07
2023-04-11T07:21:38.740Z,999.05
2023-04-11T07:22:38.736Z,999.11
2023-04-11T07:23:38.720Z,999.11
2023-04-11T07:24:38.749Z,999.07
2023-04-11T07:25:38.771Z,999.09
2023-04-11T07:26:38.957Z,999.11
2023-04-11T07:27:38.681Z,999.08
2023-04-11T07:28:38.691Z,999.08
2023-04-11T07:29:38.655Z,999.14
2023-04-11T07:30:38.672Z,999.12
2023-04-11T07:31:38.689Z,999.18
2023-04-11T07:32:38.693Z,999.18
2023-04-11T07:33:38.657Z,999.14
2023-04-11T07:34:38.611Z,999.13
2023-04-11T07:35:38.697Z,999.17
2023-04-11T07:36:38.645Z,999.21
2023-04-11T07:37:38.630Z,999.19
2023-04-11T07:38:38.572Z,999.20
2023-04-11T07:39:38.619Z,999.15
2023-04-11T07:40:38.559Z,999.11
2023-04-11T07:41:38.536Z,999.18
2023-04-11T07:42:38.573Z,999.19
2023-04-11T07:43:38.523Z,999.24
2023-04-11T07:44:38.547Z,999.02
2023-04-11T07:45:38.509Z,999.08
2023-04-11T07:46:38.630Z,999.23
2023-04-11T07:47:38.549Z,999.14
2023-04-11T07:48:38.483Z,999.23
2023-04-11T07:49:38.454Z,999.24
2023-04-11T07:50:38.428Z,999.21
2023-04-11T07:51:38.520Z,999.27
2023-04-11T07:52:38.439Z,999.27
2023-04-11T07:53:38.427Z,999.29
2023-04-11T07:54:38.400Z,999.17
2023-04-11T07:55:38.387Z,999.28
2023-04-11T07:56:38.393Z,999.32
2023-04-11T07:57:38.425Z,999.32
2023-04-11T07:58:38.366Z,999.33
2023-04-11T07:59:38.350Z,999.35
2023-04-11T08:00:38.339Z,999.28
2023-04-11T08:01:38.404Z,999.40
2023-04-11T08:02:38.478Z,999.45
2023-04-11T08:03:38.403Z,999.39
2023-04-11T08:04:38.396Z,999.55
2023-04-11T08:05:38.273Z,999.47
2023-04-11T08:06:38.326Z,999.50
2023-04-11T08:07:38.256Z,999.51
2023-04-11T08:08:38.268Z,999.51
2023-04-11T08:09:38.316Z,999.52
2023-04-11T08:10:38.226Z,999.53
2023-04-11T08:11:38.273Z,999.52
2023-04-11T08:12:38.226Z,999.62
2023-04-11T08:13:38.197Z,999.60
2023-04-11T08:14:38.232Z,999.49
2023-04-11T08:15:38.203Z,999.57
2023-04-11T08:16:38.337Z,999.57
2023-04-11T08:17:38.304Z,999.53
2023-04-11T08:18:38.141Z,999.49
2023-04-11T08:19:38.189Z,999.59
2023-04-11T08:20:38.114Z,999.63
2023-04-11T08:21:38.181Z,999.60
2023-04-11T08:22:38.098Z,999.56
2023-04-11T08:23:38.157Z,999.67
2023-04-11T08:24:38.153Z,999.64
2023-04-11T08:25:38.074Z,999.62
2023-04-11T08:26:38.057Z,999.65
2023-04-11T08:27:38.141Z,999.66
2023-04-11T08:28:38.092Z,999.56
2023-04-11T08:29:38.045Z,999.66
2023-04-11T08:30:38.029Z,999.70
2023-04-11T08:31:38.037Z,999.76
2023-04-11T08:32:38.060Z,999.68
2023-04-11T08:33:37.995Z,999.69
2023-04-11T08:34:38.070Z,999.75
2023-04-11T08:35:37.985Z,999.84
2023-04-11T08:36:37.972Z,999.88
2023-04-11T08:37:37.921Z,999.84
2023-04-11T08:38:37.931Z,999.92
2023-04-11T08:39:37.994Z,999.86
2023-04-11T08:40:37.921Z,999.88
2023-04-11T08:41:37.889Z,999.83
2023-04-11T08:42:37.995Z,999.80
2023-04-11T08:43:37.884Z,999.85
2023-04-11T08:44:37.871Z,999.79
2023-04-11T08:45:37.875Z,999.94
2023-04-11T08:46:37.924Z,1000.02
2023-04-11T08:47:37.910Z,999.86
2023-04-11T08:48:37.819Z,999.87
2023-04-11T08:49:37.813Z,999.96
2023-04-11T08:50:37.795Z,999.95
2023-04-11T08:51:37.791Z,999.97
2023-04-11T08:52:37.921Z,1000.02
2023-04-11T08:53:37.778Z,1000.10
2023-04-11T08:54:37.769Z,1000.09
2023-04-11T08:55:37.777Z,999.95
2023-04-11T08:56:37.777Z,1000.05
2023-04-11T08:57:37.737Z,1000.00
2023-04-11T08:58:37.770Z,1000.00
2023-04-11T08:59:37.712Z,999.96
2023-04-11T09:00:37.717Z,1000.04
2023-04-11T09:01:37.786Z,999.99
2023-04-11T09:02:37.763Z,999.93
2023-04-11T09:03:37.803Z,999.96
2023-04-11T09:04:37.717Z,999.98
2023-04-11T09:05:37.639Z,999.91
2023-04-11T09:06:37.671Z,1000.02
2023-04-11T09:07:37.611Z,1000.06
2023-04-11T09:08:37.725Z,999.97
2023-04-11T09:09:38.081Z,1000.04
2023-04-11T09:10:37.779Z,1000.07
2023-04-11T09:11:37.894Z,1000.03
2023-04-11T09:12:37.573Z,1000.13
2023-04-11T09:13:37.533Z,1000.10
2023-04-11T09:14:37.733Z,1000.08
2023-04-11T09:15:37.554Z,1000.12
2023-04-11T09:16:37.551Z,1000.12
2023-04-11T09:17:37.511Z,1000.08
2023-04-11T09:18:37.597Z,1000.00
2023-04-11T09:19:37.561Z,1000.00
2023-04-11T09:20:37.481Z,1000.09
2023-04-11T09:21:37.515Z,1000.07
2023-04-11T09:22:37.457Z,1000.05
2023-04-11T09:23:37.431Z,1000.09
2023-04-11T09:24:37.511Z,1000.06
2023-04-11T09:25:37.433Z,999.99
2023-04-11T09:26:37.420Z,999.92
2023-04-11T09:27:37.523Z,999.99
2023-04-11T09:28:37.434Z,1000.01
2023-04-11T09:29:37.509Z,999.99
2023-04-11T09:30:37.411Z,999.95
2023-04-11T09:31:37.415Z,999.85
2023-04-11T09:32:37.684Z,999.87
2023-04-11T09:33:37.395Z,999.90
2023-04-11T09:34:37.391Z,999.94
2023-04-11T09:35:37.352Z,999.86
2023-04-11T09:36:37.371Z,999.84
2023-04-11T09:37:37.309Z,999.85
2023-04-11T09:38:37.294Z,999.90
2023-04-11T09:39:37.271Z,999.91
2023-04-11T09:40:37.290Z,999.93
2023-04-11T09:41:37.320Z,999.87
2023-04-11T09:42:37.252Z,999.99
2023-04-11T09:43:37.226Z,999.93
2023-04-11T09:44:37.231Z,1000.00
2023-04-11T09:45:47.692Z,999.95
2023-04-11T09:46:38.316Z,999.93
2023-04-11T09:47:37.221Z,1000.08
2023-04-11T09:48:46.682Z,999.97
2023-04-11T09:49:38.197Z,999.91
2023-04-11T09:50:37.182Z,999.88
2023-04-11T09:51:37.421Z,999.96
2023-04-11T09:52:37.215Z,999.90
2023-04-11T09:53:37.222Z,999.92
2023-04-11T09:54:37.180Z,999.85
2023-04-11T09:55:37.105Z,999.78
2023-04-11T09:56:37.114Z,999.88
2023-04-11T09:57:37.090Z,999.93
2023-04-11T09:58:37.079Z,999.79
2023-04-11T09:59:37.131Z,999.90
2023-04-11T10:00:37.090Z,999.88
2023-04-11T10:01:37.161Z,999.79
2023-04-11T10:02:37.152Z,999.94
2023-04-11T10:03:37.067Z,999.79
2023-04-11T10:04:37.136Z,999.91
2023-04-11T10:05:37.009Z,999.87
2023-04-11T10:06:37.013Z,999.77
2023-04-11T10:07:37.008Z,999.88
2023-04-11T10:08:36.997Z,999.88
2023-04-11T10:09:37.056Z,999.79
2023-04-11T10:10:36.953Z,999.80
2023-04-11T10:11:37.015Z,999.85
2023-04-11T10:12:37.038Z,999.84
2023-04-11T10:13:36.937Z,999.84
2023-04-11T10:14:36.940Z,999.73
2023-04-11T10:15:36.917Z,999.75
2023-04-11T10:16:36.917Z,999.80
2023-04-11T10:17:36.999Z,999.85
2023-04-11T10:18:36.884Z,999.78
2023-04-11T10:19:36.871Z,999.81
2023-04-11T10:20:36.864Z,999.85
2023-04-11T10:21:36.918Z,999.83
2023-04-11T10:22:36.844Z,999.83
2023-04-11T10:23:36.816Z,999.68
2023-04-11T10:24:36.885Z,999.72
2023-04-11T10:25:36.851Z,999.78
2023-04-11T10:26:36.808Z,999.73
2023-04-11T10:27:36.844Z,999.77
2023-04-11T10:28:36.843Z,999.81
2023-04-11T10:29:36.749Z,999.82
2023-04-11T10:30:36.828Z,999.94
2023-04-11T10:31:36.799Z,999.96
2023-04-11T10:32:36.790Z,999.82
2023-04-11T10:33:36.800Z,999.91
2023-04-11T10:34:36.722Z,999.92
2023-04-11T10:35:37.151Z,999.83
2023-04-11T10:36:36.714Z,999.93
2023-04-11T10:37:36.692Z,999.86
2023-04-11T10:38:36.758Z,999.79
2023-04-11T10:39:36.646Z,999.92
2023-04-11T10:40:36.621Z,999.86
2023-04-11T10:41:36.654Z,999.95
2023-04-11T10:42:36.662Z,999.99
2023-04-11T10:43:39.086Z,1000.03
2023-04-11T10:44:36.670Z,1000.04
2023-04-11T10:45:37.608Z,1000.00
2023-04-11T10:46:36.634Z,1000.05
2023-04-11T10:47:36.664Z,1000.04
2023-04-11T10:48:36.548Z,1000.02
2023-04-11T10:49:36.565Z,1000.04
2023-04-11T10:50:36.527Z,1000.08
2023-04-11T10:51:36.542Z,999.97
2023-04-11T10:52:36.557Z,1000.02
2023-04-11T10:53:36.676Z,1000.06
2023-04-11T10:54:36.626Z,1000.02
2023-04-11T10:55:36.480Z,999.91
2023-04-11T10:56:36.482Z,999.96
2023-04-11T10:57:36.461Z,999.93
2023-04-11T10:58:36.517Z,1000.02
2023-04-11T10:59:36.520Z,999.88
2023-04-11T11:00:36.500Z,999.95
2023-04-11T11:01:42.941Z,999.93
2023-04-11T11:02:37.924Z,999.97
2023-04-11T11:03:36.592Z,999.95
2023-04-11T11:04:36.623Z,999.94
2023-04-11T11:05:36.436Z,999.92
2023-04-11T11:06:46.072Z,999.89
2023-04-11T11:07:37.335Z,999.95
2023-04-11T11:08:36.400Z,999.88
2023-04-11T11:09:36.379Z,999.96
2023-04-11T11:10:36.320Z,999.90
2023-04-11T11:11:36.291Z,999.77
2023-04-11T11:12:36.293Z,999.73
2023-04-11T11:13:36.401Z,999.77
2023-04-11T11:14:36.275Z,999.95
2023-04-11T11:15:36.262Z,999.99
2023-04-11T11:16:36.298Z,999.98
2023-04-11T11:17:36.265Z,1000.01
2023-04-11T11:18:36.236Z,1000.01
2023-04-11T11:19:36.300Z,999.82
2023-04-11T11:20:36.198Z,999.94
2023-04-11T11:21:36.190Z,999.90
2023-04-11T11:22:36.174Z,999.94
2023-04-11T11:23:36.471Z,999.85
2023-04-11T11:24:36.257Z,999.84
2023-04-11T11:25:36.175Z,999.97
2023-04-11T11:26:36.135Z,999.91
2023-04-11T11:27:36.127Z,999.95
2023-04-11T11:28:36.144Z,1000.06
2023-04-11T11:29:36.175Z,999.90
2023-04-11T11:30:36.121Z,999.99
2023-04-11T11:31:36.091Z,1000.00
2023-04-11T11:32:36.105Z,999.96
2023-04-11T11:33:36.075Z,999.97
2023-04-11T11:34:36.108Z,999.98
2023-04-11T11:35:36.045Z,1000.12
2023-04-11T11:36:36.110Z,1000.06
2023-04-11T11:37:36.021Z,1000.05
2023-04-11T11:38:36.002Z,1000.10
2023-04-11T11:39:36.062Z,1000.13
2023-04-11T11:40:36.007Z,1000.10
2023-04-11T11:41:35.980Z,1000.13
2023-04-11T11:42:35.965Z,1000.03
2023-04-11T11:43:35.990Z,1000.16
2023-04-11T11:44:36.013Z,1000.21
2023-04-11T11:45:36.012Z,1000.24
2023-04-11T11:46:35.962Z,1000.21
2023-04-11T11:47:35.957Z,1000.19
2023-04-11T11:48:35.902Z,1000.24
2023-04-11T11:49:35.976Z,1000.24
2023-04-11T11:50:35.915Z,1000.30
2023-04-11T11:51:35.883Z,1000.17
2023-04-11T11:52:35.881Z,1000.20
2023-04-11T11:53:35.863Z,1000.16
2023-04-11T11:54:35.849Z,1000.07
2023-04-11T11:55:35.927Z,1000.16
2023-04-11T11:56:35.848Z,1000.02
2023-04-11T11:57:35.814Z,1000.10
2023-04-11T11:58:35.808Z,1000.14
2023-04-11T11:59:35.813Z,1000.20
2023-04-11T12:00:35.840Z,1000.15
2023-04-11T12:01:35.851Z,1000.19
2023-04-11T12:02:36.003Z,1000.07
2023-04-11T12:03:35.914Z,1000.22
2023-04-11T12:04:35.888Z,1000.16
2023-04-11T12:05:35.781Z,1000.13
2023-04-11T12:06:35.796Z,1000.22
2023-04-11T12:07:35.721Z,1000.14
2023-04-11T12:08:35.728Z,1000.27
2023-04-11T12:09:35.698Z,1000.21
2023-04-11T12:10:35.671Z,1000.19
2023-04-11T12:11:35.731Z,1000.23
2023-04-11T12:12:35.724Z,1000.30
2023-04-11T12:13:35.666Z,1000.38
2023-04-11T12:14:35.642Z,1000.33
2023-04-11T12:15:35.686Z,1000.35
2023-04-11T12:16:35.989Z,1000.41
2023-04-11T12:17:37.641Z,1000.39
2023-04-11T12:18:35.606Z,1000.44
2023-04-11T12:19:35.590Z,1000.39
2023-04-11T12:20:35.650Z,1000.43
2023-04-11T12:21:35.652Z,1000.39
2023-04-11T12:22:35.588Z,1000.50
2023-04-11T12:23:35.545Z,1000.42
2023-04-11T12:24:35.537Z,1000.46
2023-04-11T12:25:35.524Z,1000.45